createdAt,value
2019-03-31T00:00:36.078Z,11.14
2019-03-31T00:01:36.018Z,11.09
2019-03-31T00:02:36.013Z,11.10
2019-03-31T00:03:35.988Z,11.06
2019-03-31T00:04:35.987Z,11.15
2019-03-31T00:05:37.472Z,10.99
2019-03-31T00:06:35.959Z,11.14
2019-03-31T00:07:35.947Z,10.99
2019-03-31T00:08:35.945Z,11.07
2019-03-31T00:09:35.929Z,11.07
2019-03-31T00:10:35.953Z,10.94
2019-03-31T00:11:35.915Z,11.06
2019-03-31T00:12:35.892Z,10.94
2019-03-31T00:13:35.893Z,11.00
2019-03-31T00:14:35.877Z,11.00
2019-03-31T00:15:35.863Z,11.00
2019-03-31T00:16:35.875Z,10.81
2019-03-31T00:17:35.843Z,10.79
2019-03-31T00:18:35.829Z,10.71
2019-03-31T00:19:35.818Z,10.74
2019-03-31T00:20:35.807Z,10.70
2019-03-31T00:21:35.835Z,10.61
2019-03-31T00:22:35.788Z,10.63
2019-03-31T00:23:35.775Z,10.55
2019-03-31T00:24:35.813Z,10.55
2019-03-31T00:25:35.780Z,10.48
2019-03-31T00:26:35.745Z,10.48
2019-03-31T00:27:35.770Z,10.53
2019-03-31T00:28:35.725Z,10.60
2019-03-31T00:29:35.712Z,10.52
2019-03-31T00:30:35.703Z,10.63
2019-03-31T00:31:35.730Z,10.63
2019-03-31T00:32:35.678Z,10.66
2019-03-31T00:33:35.712Z,10.60
2019-03-31T00:34:35.656Z,10.60
2019-03-31T00:35:35.646Z,10.66
2019-03-31T00:36:35.634Z,10.61
2019-03-31T00:37:35.623Z,10.68
2019-03-31T00:38:35.640Z,10.66
2019-03-31T00:39:35.602Z,10.68
2019-03-31T00:40:35.594Z,10.56
2019-03-31T00:41:35.580Z,10.55
2019-03-31T00:42:35.568Z,10.55
2019-03-31T00:43:35.597Z,10.63
2019-03-31T00:44:35.547Z,10.64
2019-03-31T00:45:35.535Z,10.66
2019-03-31T00:46:35.525Z,10.61
2019-03-31T00:47:35.515Z,10.66
2019-03-31T00:48:35.507Z,10.68
2019-03-31T00:49:35.529Z,10.68
2019-03-31T00:50:35.481Z,10.61
2019-03-31T00:51:35.488Z,10.60
2019-03-31T00:52:35.461Z,10.63
2019-03-31T00:53:35.448Z,10.67
2019-03-31T00:54:35.444Z,10.64
2019-03-31T00:55:35.451Z,10.66
2019-03-31T00:56:35.419Z,10.66
2019-03-31T00:57:35.410Z,10.68
2019-03-31T00:58:35.391Z,10.67
2019-03-31T00:59:35.382Z,10.61
2019-03-31T01:00:35.394Z,10.63
2019-03-31T01:01:36.794Z,10.66
2019-03-31T01:02:35.350Z,10.63
2019-03-31T01:03:35.336Z,10.60
2019-03-31T01:04:35.326Z,10.66
2019-03-31T01:05:35.342Z,10.56
2019-03-31T01:06:35.310Z,10.66
2019-03-31T01:07:35.292Z,10.63
2019-03-31T01:08:35.282Z,10.66
2019-03-31T01:09:35.279Z,10.63
2019-03-31T01:10:35.287Z,10.63
2019-03-31T01:11:35.250Z,10.67
2019-03-31T01:12:35.242Z,10.64
2019-03-31T01:13:35.230Z,10.68
2019-03-31T01:14:35.216Z,10.66
2019-03-31T01:15:35.243Z,10.67
2019-03-31T01:16:35.195Z,10.71
2019-03-31T01:17:35.183Z,10.73
2019-03-31T01:18:35.173Z,10.73
2019-03-31T01:19:35.161Z,10.71
2019-03-31T01:20:35.149Z,10.79
2019-03-31T01:21:35.177Z,10.85
2019-03-31T01:22:35.129Z,10.79
2019-03-31T01:23:35.119Z,10.85
2019-03-31T01:24:35.107Z,10.89
2019-03-31T01:25:35.100Z,10.89
2019-03-31T01:26:35.085Z,11.02
2019-03-31T01:27:35.113Z,11.06
2019-03-31T01:28:35.066Z,11.06
2019-03-31T01:29:35.054Z,11.15
2019-03-31T01:30:35.042Z,10.99
2019-03-31T01:31:35.031Z,11.04
2019-03-31T01:32:35.021Z,11.17
2019-03-31T01:33:35.051Z,11.14
2019-03-31T01:34:35.001Z,11.17
2019-03-31T01:35:34.990Z,11.15
2019-03-31T01:36:34.982Z,11.22
2019-03-31T01:37:34.978Z,11.21
2019-03-31T01:38:34.956Z,11.18
2019-03-31T01:39:34.983Z,11.19
2019-03-31T01:40:34.933Z,11.17
2019-03-31T01:41:34.923Z,11.17
2019-03-31T01:42:34.911Z,11.15
2019-03-31T01:43:34.902Z,11.27
2019-03-31T01:44:34.892Z,11.14
2019-03-31T01:45:34.907Z,11.18
2019-03-31T01:46:34.870Z,11.14
2019-03-31T01:47:34.862Z,11.11
2019-03-31T01:48:34.848Z,11.18
2019-03-31T01:49:34.836Z,11.21
2019-03-31T01:50:34.850Z,11.18
2019-03-31T01:51:34.813Z,11.18
2019-03-31T01:52:34.805Z,11.15
2019-03-31T01:53:34.793Z,11.11
2019-03-31T01:54:34.781Z,11.15
2019-03-31T01:55:34.814Z,11.15
2019-03-31T01:56:34.761Z,11.11
2019-03-31T01:57:34.747Z,11.17
2019-03-31T01:58:34.738Z,11.14
2019-03-31T01:59:34.727Z,11.14
2019-03-31T02:00:34.716Z,11.11
2019-03-31T02:01:34.744Z,11.09
2019-03-31T02:02:34.693Z,11.14
2019-03-31T02:03:34.688Z,11.07
2019-03-31T02:04:34.672Z,11.03
2019-03-31T02:05:34.664Z,10.99
2019-03-31T02:06:34.649Z,11.10
2019-03-31T02:07:34.674Z,10.99
2019-03-31T02:08:34.702Z,10.99
2019-03-31T02:09:34.615Z,11.00
2019-03-31T02:10:34.606Z,10.99
2019-03-31T02:11:34.595Z,11.07
2019-03-31T02:12:34.585Z,10.97
2019-03-31T02:13:34.612Z,10.94
2019-03-31T02:14:34.559Z,11.00
2019-03-31T02:15:34.550Z,10.99
2019-03-31T02:16:34.539Z,10.97
2019-03-31T02:17:34.531Z,10.97
2019-03-31T02:18:34.516Z,10.92
2019-03-31T02:19:34.530Z,10.88
2019-03-31T02:20:34.494Z,10.88
2019-03-31T02:21:34.483Z,10.92
2019-03-31T02:22:34.473Z,10.89
2019-03-31T02:23:34.461Z,10.82
2019-03-31T02:24:34.488Z,10.78
2019-03-31T02:25:34.439Z,10.86
2019-03-31T02:26:34.429Z,10.82
2019-03-31T02:27:34.420Z,10.78
2019-03-31T02:28:34.406Z,10.79
2019-03-31T02:29:34.396Z,10.79
2019-03-31T02:30:34.425Z,10.82
2019-03-31T02:31:34.374Z,10.79
2019-03-31T02:32:34.364Z,10.84
2019-03-31T02:33:34.351Z,10.74
2019-03-31T02:34:34.340Z,10.76
2019-03-31T02:35:34.332Z,10.74
2019-03-31T02:36:34.358Z,10.73
2019-03-31T02:37:34.309Z,10.78
2019-03-31T02:38:34.297Z,10.76
2019-03-31T02:39:34.287Z,10.74
2019-03-31T02:40:34.278Z,10.76
2019-03-31T02:41:34.263Z,10.71
2019-03-31T02:42:34.294Z,10.74
2019-03-31T02:43:34.257Z,10.70
2019-03-31T02:44:34.230Z,10.74
2019-03-31T02:45:34.221Z,10.63
2019-03-31T02:46:34.208Z,10.67
2019-03-31T02:47:34.199Z,10.70
2019-03-31T02:48:34.212Z,10.66
2019-03-31T02:49:34.177Z,10.66
2019-03-31T02:50:34.161Z,10.64
2019-03-31T02:51:34.157Z,10.63
2019-03-31T02:52:34.144Z,10.53
2019-03-31T02:53:34.156Z,10.55
2019-03-31T02:54:34.121Z,10.53
2019-03-31T02:55:34.109Z,10.56
2019-03-31T02:56:34.127Z,10.53
2019-03-31T02:57:34.086Z,10.51
2019-03-31T02:58:34.112Z,10.53
2019-03-31T02:59:34.068Z,10.53
2019-03-31T03:00:34.057Z,10.53
2019-03-31T03:01:34.046Z,10.53
2019-03-31T03:02:42.050Z,10.53
2019-03-31T03:03:35.054Z,10.56
2019-03-31T03:04:34.012Z,10.47
2019-03-31T03:05:33.998Z,10.42
2019-03-31T03:06:33.991Z,10.44
2019-03-31T03:07:33.976Z,10.40
2019-03-31T03:08:33.966Z,10.51
2019-03-31T03:09:33.979Z,10.45
2019-03-31T03:10:34.011Z,10.36
2019-03-31T03:11:33.951Z,10.40
2019-03-31T03:12:33.922Z,10.41
2019-03-31T03:13:33.912Z,10.32
2019-03-31T03:14:33.923Z,10.20
2019-03-31T03:15:33.904Z,10.26
2019-03-31T03:16:33.879Z,10.27
2019-03-31T03:17:33.867Z,10.29
2019-03-31T03:18:33.855Z,10.27
2019-03-31T03:19:33.909Z,10.22
2019-03-31T03:20:33.849Z,10.22
2019-03-31T03:21:33.864Z,10.17
2019-03-31T03:22:33.818Z,10.08
2019-03-31T03:23:33.809Z,10.05
2019-03-31T03:24:33.794Z,10.09
2019-03-31T03:25:33.940Z,10.07
2019-03-31T03:26:33.780Z,9.89
2019-03-31T03:27:33.760Z,9.91
2019-03-31T03:28:33.751Z,9.90
2019-03-31T03:29:33.736Z,9.93
2019-03-31T03:30:33.872Z,9.89
2019-03-31T03:31:33.724Z,9.91
2019-03-31T03:32:33.704Z,9.99
2019-03-31T03:33:33.701Z,9.91
2019-03-31T03:34:33.942Z,9.89
2019-03-31T03:35:33.673Z,9.97
2019-03-31T03:36:33.687Z,9.91
2019-03-31T03:37:33.650Z,9.84
2019-03-31T03:38:33.639Z,9.94
2019-03-31T03:39:33.629Z,9.89
2019-03-31T03:40:33.628Z,9.84
2019-03-31T03:41:33.647Z,9.86
2019-03-31T03:42:33.599Z,9.89
2019-03-31T03:43:33.588Z,9.83
2019-03-31T03:44:33.575Z,9.93
2019-03-31T03:45:33.566Z,9.86
2019-03-31T03:46:33.556Z,9.90
2019-03-31T03:47:33.574Z,9.81
2019-03-31T03:48:33.539Z,9.75
2019-03-31T03:49:33.523Z,9.89
2019-03-31T03:50:33.513Z,9.78
2019-03-31T03:51:33.500Z,9.75
2019-03-31T03:52:33.674Z,9.78
2019-03-31T03:53:33.481Z,9.84
2019-03-31T03:54:33.478Z,9.76
2019-03-31T03:55:33.461Z,9.90
2019-03-31T03:56:33.449Z,9.89
2019-03-31T03:57:33.448Z,9.75
2019-03-31T03:58:33.452Z,9.86
2019-03-31T03:59:33.425Z,9.74
2019-03-31T04:00:33.407Z,9.76
2019-03-31T04:01:33.416Z,9.69
2019-03-31T04:02:33.524Z,9.71
2019-03-31T04:03:33.415Z,9.72
2019-03-31T04:04:33.369Z,9.69
2019-03-31T04:05:33.354Z,9.74
2019-03-31T04:06:33.344Z,9.76
2019-03-31T04:07:33.344Z,9.65
2019-03-31T04:08:33.323Z,9.57
2019-03-31T04:09:33.337Z,9.58
2019-03-31T04:10:33.300Z,9.61
2019-03-31T04:11:33.290Z,9.68
2019-03-31T04:12:33.282Z,9.58
2019-03-31T04:13:33.270Z,9.56
2019-03-31T04:14:33.286Z,9.57
2019-03-31T04:15:33.249Z,9.56
2019-03-31T04:16:33.236Z,9.54
2019-03-31T04:17:33.226Z,9.54
2019-03-31T04:18:33.222Z,9.46
2019-03-31T04:19:33.241Z,9.53
2019-03-31T04:20:33.211Z,9.50
2019-03-31T04:21:33.184Z,9.43
2019-03-31T04:22:33.174Z,9.39
2019-03-31T04:23:33.168Z,9.43
2019-03-31T04:24:33.163Z,9.40
2019-03-31T04:25:33.169Z,9.42
2019-03-31T04:26:33.137Z,9.42
2019-03-31T04:27:33.117Z,9.38
2019-03-31T04:28:33.126Z,9.38
2019-03-31T04:29:33.099Z,9.36
2019-03-31T04:30:33.123Z,9.35
2019-03-31T04:31:33.078Z,9.36
2019-03-31T04:32:33.066Z,9.29
2019-03-31T04:33:49.464Z,9.33
2019-03-31T04:34:34.042Z,9.29
2019-03-31T04:35:33.032Z,9.33
2019-03-31T04:36:33.053Z,9.20
2019-03-31T04:37:33.019Z,9.21
2019-03-31T04:38:32.999Z,9.23
2019-03-31T04:39:32.987Z,9.21
2019-03-31T04:40:32.978Z,9.28
2019-03-31T04:41:33.002Z,9.20
2019-03-31T04:42:32.955Z,9.17
2019-03-31T04:43:32.944Z,9.17
2019-03-31T04:44:32.941Z,9.05
2019-03-31T04:45:32.923Z,9.17
2019-03-31T04:46:32.910Z,9.05
2019-03-31T04:47:32.924Z,9.10
2019-03-31T04:48:32.889Z,9.17
2019-03-31T04:49:32.880Z,9.05
2019-03-31T04:50:32.867Z,9.05
2019-03-31T04:51:32.857Z,9.05
2019-03-31T04:52:32.873Z,9.11
2019-03-31T04:53:32.836Z,9.02
2019-03-31T04:54:32.823Z,9.04
2019-03-31T04:55:32.812Z,9.01
2019-03-31T04:56:32.800Z,8.98
2019-03-31T04:57:32.824Z,9.02
2019-03-31T04:58:32.778Z,8.96
2019-03-31T04:59:32.768Z,8.99
2019-03-31T05:00:32.757Z,8.99
2019-03-31T05:01:32.750Z,8.99
2019-03-31T05:02:32.735Z,9.01
2019-03-31T05:03:32.750Z,8.86
2019-03-31T05:04:32.715Z,8.91
2019-03-31T05:05:32.703Z,8.95
2019-03-31T05:06:32.691Z,8.95
2019-03-31T05:07:32.681Z,8.89
2019-03-31T05:08:32.708Z,8.86
2019-03-31T05:09:32.659Z,8.86
2019-03-31T05:10:32.649Z,8.89
2019-03-31T05:11:32.638Z,8.83
2019-03-31T05:12:32.627Z,8.86
2019-03-31T05:13:32.615Z,8.83
2019-03-31T05:14:32.629Z,8.86
2019-03-31T05:15:32.594Z,8.89
2019-03-31T05:16:32.583Z,8.89
2019-03-31T05:17:35.605Z,8.89
2019-03-31T05:18:32.561Z,8.83
2019-03-31T05:19:32.578Z,8.87
2019-03-31T05:20:32.539Z,8.87
2019-03-31T05:21:32.528Z,8.80
2019-03-31T05:22:32.520Z,8.94
2019-03-31T05:23:32.506Z,8.89
2019-03-31T05:24:32.521Z,8.86
2019-03-31T05:25:32.483Z,8.81
2019-03-31T05:26:32.473Z,8.91
2019-03-31T05:27:32.462Z,8.91
2019-03-31T05:28:32.451Z,8.89
2019-03-31T05:29:32.477Z,8.96
2019-03-31T05:30:32.428Z,8.94
2019-03-31T05:31:32.417Z,8.95
2019-03-31T05:32:32.407Z,8.92
2019-03-31T05:33:32.395Z,8.86
2019-03-31T05:34:32.387Z,8.91
2019-03-31T05:35:32.397Z,8.94
2019-03-31T05:36:32.365Z,8.96
2019-03-31T05:37:32.351Z,8.94
2019-03-31T05:38:32.340Z,8.94
2019-03-31T05:39:32.332Z,8.96
2019-03-31T05:40:32.348Z,8.91
2019-03-31T05:41:32.309Z,8.80
2019-03-31T05:42:32.295Z,8.91
2019-03-31T05:43:32.287Z,8.92
2019-03-31T05:44:32.276Z,8.87
2019-03-31T05:45:32.300Z,9.01
2019-03-31T05:46:32.251Z,8.87
2019-03-31T05:47:32.241Z,8.87
2019-03-31T05:48:32.232Z,9.01
2019-03-31T05:49:32.221Z,8.84
2019-03-31T05:50:32.207Z,8.77
2019-03-31T05:51:32.224Z,8.74
2019-03-31T05:52:32.187Z,8.76
2019-03-31T05:53:32.176Z,8.74
2019-03-31T05:54:32.166Z,8.71
2019-03-31T05:55:32.156Z,8.81
2019-03-31T05:56:32.182Z,8.70
2019-03-31T05:57:32.139Z,8.81
2019-03-31T05:58:32.118Z,8.76
2019-03-31T05:59:32.108Z,8.76
2019-03-31T06:00:32.099Z,8.74
2019-03-31T06:01:32.088Z,8.79
2019-03-31T06:02:32.099Z,8.80
2019-03-31T06:03:32.066Z,8.94
2019-03-31T06:04:33.515Z,8.84
2019-03-31T06:05:32.042Z,8.76
2019-03-31T06:06:32.032Z,8.80
2019-03-31T06:07:32.048Z,8.76
2019-03-31T06:08:32.012Z,8.73
2019-03-31T06:09:31.999Z,8.71
2019-03-31T06:10:31.988Z,8.74
2019-03-31T06:11:31.977Z,8.74
2019-03-31T06:12:31.990Z,8.73
2019-03-31T06:13:31.957Z,8.68
2019-03-31T06:14:31.945Z,8.66
2019-03-31T06:15:31.961Z,8.58
2019-03-31T06:16:31.922Z,8.61
2019-03-31T06:17:31.946Z,8.62
2019-03-31T06:18:31.899Z,8.61
2019-03-31T06:19:31.888Z,8.59
2019-03-31T06:20:31.877Z,8.56
2019-03-31T06:21:31.866Z,8.53
2019-03-31T06:22:31.854Z,8.59
2019-03-31T06:23:31.871Z,8.61
2019-03-31T06:24:31.833Z,8.59
2019-03-31T06:25:31.859Z,8.58
2019-03-31T06:26:31.819Z,8.62
2019-03-31T06:27:31.801Z,8.70
2019-03-31T06:28:31.792Z,8.68
2019-03-31T06:29:31.783Z,8.66
2019-03-31T06:30:31.767Z,8.66
2019-03-31T06:31:31.781Z,8.74
2019-03-31T06:32:31.745Z,8.81
2019-03-31T06:33:31.735Z,8.71
2019-03-31T06:34:31.724Z,8.77
2019-03-31T06:35:31.714Z,8.80
2019-03-31T06:36:31.725Z,8.91
2019-03-31T06:37:31.691Z,8.96
2019-03-31T06:38:31.680Z,8.89
2019-03-31T06:39:34.234Z,8.95
2019-03-31T06:40:31.659Z,8.96
2019-03-31T06:41:31.682Z,9.05
2019-03-31T06:42:31.639Z,9.01
2019-03-31T06:43:31.625Z,9.02
2019-03-31T06:44:31.613Z,9.04
2019-03-31T06:45:31.603Z,9.05
2019-03-31T06:46:31.594Z,9.15
2019-03-31T06:47:31.619Z,9.24
2019-03-31T06:48:31.570Z,9.24
2019-03-31T06:49:31.561Z,9.28
2019-03-31T06:50:31.550Z,9.38
2019-03-31T06:51:31.540Z,9.35
2019-03-31T06:52:31.527Z,9.20
2019-03-31T06:53:31.647Z,9.20
2019-03-31T06:54:31.506Z,9.24
2019-03-31T06:55:31.495Z,9.35
2019-03-31T06:56:31.485Z,9.24
2019-03-31T06:57:31.472Z,9.32
2019-03-31T06:58:31.486Z,9.36
2019-03-31T06:59:31.481Z,9.35
2019-03-31T07:00:31.440Z,9.36
2019-03-31T07:01:31.434Z,9.47
2019-03-31T07:02:31.421Z,9.53
2019-03-31T07:03:31.445Z,9.61
2019-03-31T07:04:31.401Z,9.57
2019-03-31T07:05:31.427Z,9.72
2019-03-31T07:06:31.381Z,9.86
2019-03-31T07:07:31.368Z,9.74
2019-03-31T07:08:31.410Z,9.72
2019-03-31T07:09:31.386Z,9.69
2019-03-31T07:10:31.393Z,9.75
2019-03-31T07:11:31.382Z,9.76
2019-03-31T07:12:31.317Z,9.66
2019-03-31T07:13:31.305Z,9.81
2019-03-31T07:14:31.294Z,9.71
2019-03-31T07:15:31.307Z,9.75
2019-03-31T07:16:31.272Z,9.79
2019-03-31T07:17:31.264Z,9.84
2019-03-31T07:18:31.252Z,9.78
2019-03-31T07:19:31.240Z,9.78
2019-03-31T07:20:31.254Z,9.94
2019-03-31T07:21:31.222Z,9.90
2019-03-31T07:22:31.210Z,9.90
2019-03-31T07:23:31.199Z,9.79
2019-03-31T07:24:31.188Z,9.94
2019-03-31T07:25:31.202Z,9.89
2019-03-31T07:26:31.191Z,9.91
2019-03-31T07:27:31.198Z,9.93
2019-03-31T07:28:31.149Z,9.91
2019-03-31T07:29:31.135Z,9.87
2019-03-31T07:30:31.152Z,9.91
2019-03-31T07:31:31.114Z,10.07
2019-03-31T07:32:31.103Z,10.05
2019-03-31T07:33:31.091Z,10.04
2019-03-31T07:34:31.082Z,10.04
2019-03-31T07:35:31.093Z,9.89
2019-03-31T07:36:31.064Z,9.91
2019-03-31T07:37:31.048Z,10.02
2019-03-31T07:38:38.880Z,10.05
2019-03-31T07:39:32.206Z,10.07
2019-03-31T07:40:31.424Z,10.20
2019-03-31T07:41:31.126Z,10.14
2019-03-31T07:42:31.067Z,10.23
2019-03-31T07:43:30.984Z,10.25
2019-03-31T07:44:31.016Z,10.25
2019-03-31T07:45:30.995Z,10.29
2019-03-31T07:46:30.951Z,10.30
2019-03-31T07:47:30.943Z,10.34
2019-03-31T07:48:30.934Z,10.34
2019-03-31T07:49:30.916Z,10.38
2019-03-31T07:50:30.907Z,10.40
2019-03-31T07:51:30.922Z,10.41
2019-03-31T07:52:30.885Z,10.41
2019-03-31T07:53:30.876Z,10.38
2019-03-31T07:54:30.862Z,10.45
2019-03-31T07:55:30.931Z,10.45
2019-03-31T07:56:30.877Z,10.42
2019-03-31T07:57:30.836Z,10.41
2019-03-31T07:58:30.818Z,10.51
2019-03-31T07:59:30.859Z,10.45
2019-03-31T08:00:30.798Z,10.41
2019-03-31T08:01:30.822Z,10.45
2019-03-31T08:02:30.775Z,10.48
2019-03-31T08:03:30.765Z,10.53
2019-03-31T08:04:30.754Z,10.56
2019-03-31T08:05:33.417Z,10.52
2019-03-31T08:06:30.733Z,10.44
2019-03-31T08:07:30.760Z,10.48
2019-03-31T08:08:30.710Z,10.40
2019-03-31T08:09:30.701Z,10.34
2019-03-31T08:10:30.690Z,10.38
2019-03-31T08:11:30.680Z,10.41
2019-03-31T08:12:30.669Z,10.41
2019-03-31T08:13:30.679Z,10.41
2019-03-31T08:14:30.650Z,10.42
2019-03-31T08:15:30.635Z,10.38
2019-03-31T08:16:30.627Z,10.36
2019-03-31T08:17:30.614Z,10.51
2019-03-31T08:18:30.627Z,10.41
2019-03-31T08:19:30.592Z,10.48
2019-03-31T08:20:30.579Z,10.53
2019-03-31T08:21:30.569Z,10.52
2019-03-31T08:22:30.559Z,10.55
2019-03-31T08:23:30.572Z,10.68
2019-03-31T08:24:30.536Z,10.55
2019-03-31T08:25:30.530Z,10.59
2019-03-31T08:26:30.514Z,10.48
2019-03-31T08:27:30.505Z,10.60
2019-03-31T08:28:30.529Z,10.48
2019-03-31T08:29:30.482Z,10.48
2019-03-31T08:30:30.477Z,10.51
2019-03-31T08:31:30.460Z,10.55
2019-03-31T08:32:30.450Z,10.51
2019-03-31T08:33:30.441Z,10.53
2019-03-31T08:34:30.455Z,10.51
2019-03-31T08:35:30.421Z,10.63
2019-03-31T08:36:30.408Z,10.56
2019-03-31T08:37:30.395Z,10.64
2019-03-31T08:38:30.385Z,10.66
2019-03-31T08:39:30.411Z,10.61
2019-03-31T08:40:30.370Z,10.61
2019-03-31T08:41:30.373Z,10.61
2019-03-31T08:42:30.342Z,10.66
2019-03-31T08:43:30.331Z,10.71
2019-03-31T08:44:30.330Z,10.84
2019-03-31T08:45:30.660Z,11.00
2019-03-31T08:46:30.299Z,11.10
2019-03-31T08:47:30.292Z,11.19
2019-03-31T08:48:30.282Z,11.28
2019-03-31T08:49:30.270Z,11.36
2019-03-31T08:50:30.279Z,11.28
2019-03-31T08:51:30.261Z,11.33
2019-03-31T08:52:30.239Z,11.36
2019-03-31T08:53:30.232Z,11.19
2019-03-31T08:54:30.214Z,11.10
2019-03-31T08:55:30.226Z,10.97
2019-03-31T08:56:30.193Z,10.88
2019-03-31T08:57:30.181Z,10.82
2019-03-31T08:58:30.226Z,10.88
2019-03-31T08:59:30.186Z,10.94
2019-03-31T09:00:30.174Z,11.00
2019-03-31T09:01:30.138Z,11.02
2019-03-31T09:02:30.128Z,11.11
2019-03-31T09:03:30.115Z,11.17
2019-03-31T09:04:30.108Z,11.28
2019-03-31T09:05:30.119Z,11.36
2019-03-31T09:06:30.083Z,11.40
2019-03-31T09:07:30.075Z,11.42
2019-03-31T09:08:30.062Z,11.39
2019-03-31T09:09:30.051Z,11.39
2019-03-31T09:10:30.074Z,11.29
2019-03-31T09:11:30.030Z,11.24
2019-03-31T09:12:30.017Z,11.15
2019-03-31T09:13:30.010Z,11.15
2019-03-31T09:14:29.995Z,11.10
2019-03-31T09:15:30.026Z,10.92
2019-03-31T09:16:29.974Z,10.94
2019-03-31T09:17:29.964Z,10.91
2019-03-31T09:18:29.960Z,10.96
2019-03-31T09:19:29.943Z,10.89
2019-03-31T09:20:29.930Z,10.97
2019-03-31T09:21:29.955Z,10.96
2019-03-31T09:22:29.909Z,11.00
2019-03-31T09:23:29.898Z,11.06
2019-03-31T09:24:29.888Z,11.09
2019-03-31T09:25:29.877Z,11.10
2019-03-31T09:26:29.865Z,10.92
2019-03-31T09:27:29.882Z,10.96
2019-03-31T09:28:29.846Z,10.96
2019-03-31T09:29:29.833Z,11.02
2019-03-31T09:30:29.864Z,10.96
2019-03-31T09:31:29.813Z,10.88
2019-03-31T09:32:29.837Z,10.79
2019-03-31T09:33:29.795Z,10.78
2019-03-31T09:34:29.779Z,10.71
2019-03-31T09:35:29.802Z,10.66
2019-03-31T09:36:29.758Z,10.59
2019-03-31T09:37:29.745Z,10.41
2019-03-31T09:38:29.762Z,10.48
2019-03-31T09:39:29.726Z,10.32
2019-03-31T09:40:29.717Z,10.42
2019-03-31T09:41:29.703Z,10.41
2019-03-31T09:42:29.697Z,10.34
2019-03-31T09:43:29.718Z,10.32
2019-03-31T09:44:30.410Z,10.41
2019-03-31T09:45:29.662Z,10.41
2019-03-31T09:46:29.651Z,10.45
2019-03-31T09:47:29.640Z,10.41
2019-03-31T09:48:29.629Z,10.32
2019-03-31T09:49:29.654Z,10.29
2019-03-31T09:50:29.612Z,10.30
2019-03-31T09:51:29.595Z,10.27
2019-03-31T09:52:29.585Z,10.27
2019-03-31T09:53:29.575Z,10.44
2019-03-31T09:54:29.565Z,10.42
2019-03-31T09:55:29.580Z,10.33
2019-03-31T09:56:29.544Z,10.44
2019-03-31T09:57:29.534Z,10.44
2019-03-31T09:58:29.523Z,10.48
2019-03-31T09:59:29.511Z,10.59
2019-03-31T10:00:29.525Z,10.68
2019-03-31T10:01:29.489Z,10.74
2019-03-31T10:02:29.480Z,10.79
2019-03-31T10:03:29.473Z,10.84
2019-03-31T10:04:29.457Z,10.79
2019-03-31T10:05:29.470Z,10.78
2019-03-31T10:06:30.741Z,10.88
2019-03-31T10:07:29.426Z,10.94
2019-03-31T10:08:29.416Z,11.09
2019-03-31T10:09:29.408Z,11.11
2019-03-31T10:10:29.419Z,11.17
2019-03-31T10:11:29.383Z,11.25
2019-03-31T10:12:29.373Z,11.39
2019-03-31T10:13:29.361Z,11.47
2019-03-31T10:14:29.350Z,11.49
2019-03-31T10:15:29.377Z,11.55
2019-03-31T10:16:29.328Z,11.62
2019-03-31T10:17:29.316Z,11.65
2019-03-31T10:18:29.307Z,11.60
2019-03-31T10:19:29.296Z,11.64
2019-03-31T10:20:31.421Z,11.57
2019-03-31T10:21:29.357Z,11.69
2019-03-31T10:22:29.264Z,11.57
2019-03-31T10:23:29.254Z,11.58
2019-03-31T10:24:29.241Z,11.58
2019-03-31T10:25:29.230Z,11.60
2019-03-31T10:26:32.339Z,11.58
2019-03-31T10:27:29.233Z,11.57
2019-03-31T10:28:29.198Z,11.65
2019-03-31T10:29:29.190Z,11.69
2019-03-31T10:30:29.174Z,11.61
2019-03-31T10:31:29.163Z,11.61
2019-03-31T10:32:29.177Z,11.61
2019-03-31T10:33:29.142Z,11.67
2019-03-31T10:34:29.130Z,11.76
2019-03-31T10:35:29.121Z,11.83
2019-03-31T10:36:29.110Z,11.94
2019-03-31T10:37:29.137Z,11.95
2019-03-31T10:38:29.088Z,11.94
2019-03-31T10:39:29.078Z,11.82
2019-03-31T10:40:29.067Z,11.88
2019-03-31T10:41:31.008Z,11.90
2019-03-31T10:42:29.063Z,11.80
2019-03-31T10:43:29.060Z,11.62
2019-03-31T10:44:29.028Z,11.60
2019-03-31T10:45:29.013Z,11.51
2019-03-31T10:46:29.004Z,11.39
2019-03-31T10:47:28.993Z,11.33
2019-03-31T10:48:29.008Z,11.25
2019-03-31T10:49:28.970Z,11.33
2019-03-31T10:50:28.961Z,11.36
2019-03-31T10:51:28.953Z,11.32
2019-03-31T10:52:28.938Z,11.33
2019-03-31T10:53:28.965Z,11.54
2019-03-31T10:54:28.920Z,11.47
2019-03-31T10:55:28.910Z,11.51
2019-03-31T10:56:28.896Z,11.54
2019-03-31T10:57:28.885Z,11.49
2019-03-31T10:58:28.874Z,11.46
2019-03-31T10:59:28.887Z,11.57
2019-03-31T11:00:28.853Z,11.64
2019-03-31T11:01:28.842Z,11.86
2019-03-31T11:02:28.832Z,12.17
2019-03-31T11:03:28.825Z,12.45
2019-03-31T11:04:28.836Z,12.70
2019-03-31T11:05:28.808Z,12.95
2019-03-31T11:06:28.790Z,13.05
2019-03-31T11:07:28.780Z,13.08
2019-03-31T11:08:28.767Z,13.20
2019-03-31T11:09:28.781Z,12.87
2019-03-31T11:10:28.746Z,12.78
2019-03-31T11:11:28.733Z,12.78
2019-03-31T11:12:28.724Z,13.17
2019-03-31T11:13:28.713Z,13.23
2019-03-31T11:14:28.739Z,13.73
2019-03-31T11:15:28.691Z,14.15
2019-03-31T11:16:28.681Z,13.81
2019-03-31T11:17:28.671Z,13.60
2019-03-31T11:18:28.658Z,13.41
2019-03-31T11:19:28.647Z,13.41
2019-03-31T11:20:28.674Z,13.88
2019-03-31T11:21:28.627Z,14.72
2019-03-31T11:22:28.622Z,15.84
2019-03-31T11:23:28.605Z,16.83
2019-03-31T11:24:28.594Z,17.37
2019-03-31T11:25:29.413Z,17.07
2019-03-31T11:26:28.576Z,16.73
2019-03-31T11:27:28.564Z,16.94
2019-03-31T11:28:28.552Z,16.52
2019-03-31T11:29:28.541Z,15.83
2019-03-31T11:30:28.556Z,15.25
2019-03-31T11:31:29.419Z,15.75
2019-03-31T11:32:28.509Z,15.19
2019-03-31T11:33:28.496Z,14.84
2019-03-31T11:34:28.486Z,14.65
2019-03-31T11:35:43.421Z,14.61
2019-03-31T11:36:28.463Z,14.51
2019-03-31T11:37:28.452Z,14.42
2019-03-31T11:38:28.442Z,14.28
2019-03-31T11:39:28.432Z,14.24
2019-03-31T11:40:28.419Z,14.18
2019-03-31T11:41:28.446Z,14.28
2019-03-31T11:42:28.398Z,14.35
2019-03-31T11:43:28.386Z,14.37
2019-03-31T11:44:28.478Z,15.44
2019-03-31T11:45:28.364Z,15.34
2019-03-31T11:46:28.366Z,15.11
2019-03-31T11:47:28.366Z,15.11
2019-03-31T11:48:28.331Z,14.91
2019-03-31T11:49:28.320Z,14.81
2019-03-31T11:50:28.310Z,14.88
2019-03-31T11:51:28.296Z,16.33
2019-03-31T11:52:28.319Z,16.42
2019-03-31T11:53:28.286Z,16.07
2019-03-31T11:54:28.268Z,15.57
2019-03-31T11:55:28.255Z,16.25
2019-03-31T11:56:28.246Z,17.40
2019-03-31T11:57:28.268Z,17.74
2019-03-31T11:58:28.223Z,17.78
2019-03-31T11:59:28.211Z,17.12
2019-03-31T12:00:28.204Z,16.63
2019-03-31T12:01:28.189Z,17.37
2019-03-31T12:02:28.188Z,18.23
2019-03-31T12:03:30.929Z,18.75
2019-03-31T12:04:28.159Z,17.82
2019-03-31T12:05:28.151Z,17.64
2019-03-31T12:06:28.139Z,16.97
2019-03-31T12:07:28.697Z,16.31
2019-03-31T12:08:28.120Z,15.90
2019-03-31T12:09:28.145Z,15.62
2019-03-31T12:10:28.093Z,16.67
2019-03-31T12:11:28.084Z,17.11
2019-03-31T12:12:28.074Z,17.15
2019-03-31T12:13:28.065Z,18.12
2019-03-31T12:14:28.051Z,18.67
2019-03-31T12:15:28.067Z,17.81
2019-03-31T12:16:28.033Z,18.05
2019-03-31T12:17:28.022Z,19.14
2019-03-31T12:18:28.011Z,19.76
2019-03-31T12:19:27.997Z,20.26
2019-03-31T12:20:28.021Z,20.41
2019-03-31T12:21:27.979Z,20.50
2019-03-31T12:22:27.967Z,20.62
2019-03-31T12:23:27.954Z,20.95
2019-03-31T12:24:27.944Z,21.12
2019-03-31T12:25:27.963Z,21.72
2019-03-31T12:26:27.924Z,21.99
2019-03-31T12:27:27.915Z,22.39
2019-03-31T12:28:27.903Z,22.82
2019-03-31T12:29:27.894Z,23.42
2019-03-31T12:30:27.906Z,23.19
2019-03-31T12:31:27.870Z,23.01
2019-03-31T12:32:27.860Z,22.57
2019-03-31T12:33:27.849Z,21.34
2019-03-31T12:34:27.850Z,20.98
2019-03-31T12:35:27.864Z,20.66
2019-03-31T12:36:27.818Z,20.16
2019-03-31T12:37:41.257Z,19.86
2019-03-31T12:38:28.796Z,20.51
2019-03-31T12:39:27.786Z,21.82
2019-03-31T12:40:27.774Z,20.97
2019-03-31T12:41:27.836Z,20.39
2019-03-31T12:42:27.752Z,20.33
2019-03-31T12:43:27.744Z,20.23
2019-03-31T12:44:27.740Z,19.68
2019-03-31T12:45:27.724Z,20.21
2019-03-31T12:46:27.713Z,21.28
2019-03-31T12:47:27.729Z,21.88
2019-03-31T12:48:27.691Z,21.46
2019-03-31T12:49:27.680Z,20.20
2019-03-31T12:50:27.674Z,19.26
2019-03-31T12:51:27.660Z,18.78
2019-03-31T12:52:27.678Z,18.37
2019-03-31T12:53:27.640Z,18.32
2019-03-31T12:54:27.633Z,19.51
2019-03-31T12:55:27.618Z,20.64
2019-03-31T12:56:27.606Z,21.35
2019-03-31T12:57:27.623Z,21.69
2019-03-31T12:58:27.585Z,21.64
2019-03-31T12:59:27.780Z,21.83
2019-03-31T13:00:27.580Z,21.24